Time;durP1;ratioP1;P1;durP2;ratioP2;P2;SDS_P1;SDS_P2;PMS_P1;PMS_P2;Temp;Humidity;BMP_temperature;BMP_pressure;BME280_temperature;BME280_humidity;BME280_pressure;Samples;Min_cycle;Max_cycle;Signal;HPM_P1;HPM_P2
2021/05/24 00:02:21;;;;;;;2.50;0.40;;;13.20;99.90;;;;;;4969339;28;20450;-69
2021/05/24 00:04:46;;;;;;;0.98;0.20;;;13.20;99.90;;;;;;4973425;28;20041;-69
2021/05/24 00:07:12;;;;;;;1.30;0.20;;;13.20;99.90;;;;;;4973820;28;20035;-68
2021/05/24 00:09:38;;;;;;;5.05;0.22;;;13.20;99.90;;;;;;4973839;28;20098;-69
2021/05/24 00:12:05;;;;;;;0.35;0.20;;;13.20;99.90;;;;;;4974392;28;20034;-69
2021/05/24 00:14:34;;;;;;;2.40;0.32;;;13.20;99.90;;;;;;4979012;28;20031;-69
2021/05/24 00:16:59;;;;;;;1.25;0.20;;;13.20;99.90;;;;;;4986292;28;20408;-69
2021/05/24 00:19:25;;;;;;;1.77;0.30;;;13.30;99.90;;;;;;4981553;28;20388;-68
2021/05/24 00:21:50;;;;;;;1.77;0.20;;;13.20;99.90;;;;;;4974623;28;20573;-68
2021/05/24 00:24:16;;;;;;;1.67;0.63;;;13.20;99.90;;;;;;4973770;28;20022;-71
2021/05/24 00:26:42;;;;;;;0.77;0.20;;;13.20;99.90;;;;;;4969078;28;20055;-68
2021/05/24 00:29:14;;;;;;;1.55;0.38;;;13.30;99.90;;;;;;4971683;28;20031;-68
2021/05/24 00:31:40;;;;;;;1.15;0.40;;;13.30;99.90;;;;;;4972774;28;20050;-68
2021/05/24 00:34:05;;;;;;;1.23;0.20;;;13.30;99.90;;;;;;4973909;28;20039;-71
2021/05/24 00:36:31;;;;;;;1.67;0.20;;;13.30;99.90;;;;;;4971564;28;20053;-69
2021/05/24 00:38:56;;;;;;;3.75;0.32;;;13.30;99.90;;;;;;4969175;28;20038;-69
2021/05/24 00:41:22;;;;;;;1.10;0.30;;;13.30;99.90;;;;;;4973069;28;20052;-69
2021/05/24 00:43:48;;;;;;;1.38;0.30;;;13.30;99.90;;;;;;4973259;28;20070;-69
2021/05/24 00:46:14;;;;;;;1.52;0.22;;;13.40;99.90;;;;;;4972535;28;20047;-68
2021/05/24 00:48:39;;;;;;;0.43;0.30;;;13.30;99.90;;;;;;4972551;28;20046;-68
2021/05/24 00:51:05;;;;;;;2.53;0.43;;;13.40;99.90;;;;;;4973741;28;20073;-69
2021/05/24 00:53:30;;;;;;;3.72;0.30;;;13.40;99.90;;;;;;4973081;28;20031;-70
2021/05/24 00:55:56;;;;;;;1.23;0.22;;;13.40;99.90;;;;;;4969730;28;20046;-70
2021/05/24 00:58:22;;;;;;;1.17;0.50;;;13.30;99.90;;;;;;4969423;28;20070;-70
2021/05/24 01:00:49;;;;;;;0.95;0.17;;;13.30;99.90;;;;;;4970874;28;20069;-70
2021/05/24 01:03:15;;;;;;;2.70;0.22;;;13.40;99.90;;;;;;4968780;28;20043;-70
2021/05/24 01:05:42;;;;;;;3.55;0.30;;;13.30;99.90;;;;;;4976743;28;20051;-70
2021/05/24 01:08:11;;;;;;;2.47;0.30;;;13.40;99.90;;;;;;4970206;28;20027;-69
2021/05/24 01:10:37;;;;;;;0.50;0.20;;;13.40;99.90;;;;;;4985296;28;20031;-70
2021/05/24 01:13:07;;;;;;;0.50;0.20;;;13.40;99.90;;;;;;4971015;28;20034;-70
2021/05/24 01:15:34;;;;;;;0.25;0.10;;;13.40;99.90;;;;;;4970296;28;20133;-70
2021/05/24 01:18:00;;;;;;;2.10;0.20;;;13.30;99.90;;;;;;4970572;28;20034;-69
2021/05/24 01:20:27;;;;;;;1.55;0.30;;;13.40;99.90;;;;;;4970283;28;20030;-70
2021/05/24 01:25:28;;;;;;;2.25;0.30;;;13.30;99.90;;;;;;4977876;28;20042;-70
2021/05/24 01:27:53;;;;;;;1.13;0.22;;;13.30;99.90;;;;;;5000853;28;20091;-70
2021/05/24 01:30:21;;;;;;;1.65;0.50;;;13.30;99.90;;;;;;4985239;28;20111;-70
2021/05/24 01:32:47;;;;;;;1.35;0.10;;;13.30;99.90;;;;;;4980146;28;20035;-70
2021/05/24 01:35:13;;;;;;;1.98;0.35;;;13.30;99.90;;;;;;4970030;28;20074;-69
2021/05/24 01:37:38;;;;;;;0.82;0.13;;;13.30;99.90;;;;;;4967166;28;20133;-70
2021/05/24 01:40:05;;;;;;;1.63;0.40;;;13.30;99.90;;;;;;4983884;28;20026;-70
2021/05/24 01:42:31;;;;;;;1.08;0.10;;;13.30;99.90;;;;;;4968230;28;20685;-70
2021/05/24 01:44:57;;;;;;;2.95;0.28;;;13.20;99.90;;;;;;4969304;28;20077;-70
2021/05/24 01:47:22;;;;;;;2.08;0.30;;;13.30;99.90;;;;;;4969096;28;20786;-69
2021/05/24 01:49:48;;;;;;;1.52;0.30;;;13.30;99.90;;;;;;4968696;28;20027;-70
2021/05/24 01:52:18;;;;;;;0.30;0.10;;;13.30;99.90;;;;;;4969518;28;20426;-70
2021/05/24 01:54:45;;;;;;;3.58;0.20;;;13.30;99.90;;;;;;4961579;28;20037;-70
2021/05/24 01:57:13;;;;;;;4.80;0.38;;;13.30;99.90;;;;;;4983736;28;20034;-70
2021/05/24 01:59:39;;;;;;;0.75;0.20;;;13.30;99.90;;;;;;4967204;28;20438;-70
2021/05/24 02:02:05;;;;;;;3.70;0.63;;;13.30;99.90;;;;;;4969059;28;20058;-70
2021/05/24 02:04:31;;;;;;;3.47;0.22;;;13.30;99.90;;;;;;4968010;28;20053;-69
2021/05/24 02:06:57;;;;;;;2.72;0.20;;;13.30;99.90;;;;;;4968541;28;20043;-70
2021/05/24 02:09:24;;;;;;;4.50;0.22;;;13.30;99.90;;;;;;4968621;28;20043;-70
2021/05/24 02:11:50;;;;;;;2.60;0.22;;;13.20;99.90;;;;;;4968882;28;20085;-68
2021/05/24 02:14:16;;;;;;;2.42;0.45;;;13.20;99.90;;;;;;4967717;28;20026;-68
2021/05/24 02:16:47;;;;;;;0.65;0.20;;;13.20;99.90;;;;;;4969029;28;20035;-68
2021/05/24 02:19:15;;;;;;;0.77;0.20;;;13.20;99.90;;;;;;4964769;28;20042;-67
2021/05/24 02:21:41;;;;;;;0.50;0.13;;;13.20;99.90;;;;;;4968700;28;20407;-68
2021/05/24 02:24:07;;;;;;;0.45;0.38;;;13.20;99.90;;;;;;4968706;28;20035;-68
2021/05/24 02:26:34;;;;;;;0.65;0.20;;;13.20;99.90;;;;;;4979404;28;20054;-69
2021/05/24 02:29:01;;;;;;;1.38;0.20;;;13.10;99.90;;;;;;4968093;28;20066;-69
2021/05/24 02:31:27;;;;;;;2.63;0.20;;;13.10;99.90;;;;;;4969050;28;20113;-69
2021/05/24 02:33:53;;;;;;;0.98;0.25;;;13.10;99.90;;;;;;4966845;28;20503;-69
2021/05/24 02:36:21;;;;;;;1.83;0.10;;;13.10;99.90;;;;;;4967987;28;20058;-68
2021/05/24 02:38:47;;;;;;;1.73;0.40;;;13.10;99.90;;;;;;4965225;28;20027;-69
2021/05/24 02:41:13;;;;;;;0.43;0.20;;;13.10;99.90;;;;;;4968387;28;20046;-69
2021/05/24 02:43:39;;;;;;;2.58;0.60;;;13.00;99.90;;;;;;4968877;28;20023;-71
2021/05/24 02:46:04;;;;;;;0.93;0.10;;;13.10;99.90;;;;;;4968488;28;20047;-67
2021/05/24 02:48:30;;;;;;;1.92;0.35;;;13.10;99.90;;;;;;4970120;28;20060;-68
2021/05/24 02:50:56;;;;;;;0.43;0.10;;;13.10;99.90;;;;;;4967334;28;20135;-68
2021/05/24 02:53:21;;;;;;;0.73;0.38;;;13.10;99.90;;;;;;4968474;28;20043;-66
2021/05/24 02:55:47;;;;;;;0.52;0.20;;;13.00;99.90;;;;;;4968297;28;20035;-69
2021/05/24 02:58:12;;;;;;;0.52;0.20;;;13.00;99.90;;;;;;4967810;28;20116;-69
2021/05/24 03:00:38;;;;;;;1.65;0.20;;;13.00;99.90;;;;;;4964827;28;20031;-67
2021/05/24 03:03:04;;;;;;;2.60;0.20;;;12.90;99.90;;;;;;4967788;28;20504;-68
2021/05/24 03:05:29;;;;;;;2.72;0.57;;;12.90;99.90;;;;;;4968659;28;20513;-69
2021/05/24 03:07:55;;;;;;;1.00;0.10;;;12.90;99.90;;;;;;4967840;28;20110;-68
2021/05/24 03:10:25;;;;;;;1.40;0.10;;;12.80;99.90;;;;;;4967018;28;20046;-69
2021/05/24 03:12:51;;;;;;;2.45;0.63;;;12.80;99.90;;;;;;4968242;28;20090;-69
2021/05/24 03:15:18;;;;;;;0.50;0.10;;;12.70;99.90;;;;;;4968494;28;20031;-68
2021/05/24 03:17:44;;;;;;;4.47;0.30;;;12.70;99.90;;;;;;4982733;28;20109;-66
2021/05/24 03:20:11;;;;;;;2.00;0.38;;;12.60;99.90;;;;;;4967806;28;20034;-67
2021/05/24 03:22:38;;;;;;;1.10;0.15;;;12.50;99.90;;;;;;4978913;28;20042;-68
2021/05/24 03:25:05;;;;;;;4.00;0.30;;;12.40;99.90;;;;;;4967320;28;20521;-68
2021/05/24 03:27:31;;;;;;;2.05;0.10;;;12.20;99.90;;;;;;4978373;28;20090;-68
2021/05/24 03:29:56;;;;;;;0.70;0.20;;;12.00;99.90;;;;;;4966764;28;20372;-68
2021/05/24 03:32:22;;;;;;;4.57;0.20;;;11.80;99.90;;;;;;4968152;28;20601;-68
2021/05/24 03:34:47;;;;;;;0.63;0.30;;;11.70;99.90;;;;;;4968240;28;20682;-69
2021/05/24 03:37:13;;;;;;;0.10;0.10;;;11.60;99.90;;;;;;4977035;28;20038;-67
2021/05/24 03:39:39;;;;;;;0.98;0.10;;;11.70;99.90;;;;;;4966350;28;20038;-69
2021/05/24 03:42:04;;;;;;;1.13;0.20;;;11.60;99.90;;;;;;4967669;28;20046;-68
2021/05/24 03:44:30;;;;;;;0.47;0.10;;;11.50;99.90;;;;;;4967638;28;20546;-68
2021/05/24 03:46:56;;;;;;;3.30;0.30;;;11.60;99.90;;;;;;4982170;28;20150;-67
2021/05/24 03:49:21;;;;;;;0.60;0.10;;;11.60;99.90;;;;;;4966703;28;20082;-68
2021/05/24 03:51:47;;;;;;;4.00;0.40;;;11.60;99.90;;;;;;4967652;28;20031;-68
2021/05/24 03:54:12;;;;;;;0.47;0.25;;;11.60;99.90;;;;;;4967276;28;20070;-67
2021/05/24 03:56:38;;;;;;;2.50;0.20;;;11.60;99.90;;;;;;4967614;28;20039;-67
2021/05/24 03:59:03;;;;;;;1.90;0.20;;;11.50;99.90;;;;;;4966224;28;20039;-68
2021/05/24 04:01:29;;;;;;;3.00;0.20;;;11.50;99.90;;;;;;4968089;28;20492;-68
2021/05/24 04:03:56;;;;;;;0.22;0.10;;;11.50;99.90;;;;;;4970822;28;20026;-68
2021/05/24 04:06:25;;;;;;;0.10;0.00;;;11.40;99.90;;;;;;4970972;28;20073;-68
2021/05/24 04:08:50;;;;;;;1.17;0.30;;;11.40;99.90;;;;;;4970611;28;20089;-68
2021/05/24 04:11:16;;;;;;;0.25;0.10;;;11.40;99.90;;;;;;4970578;28;20042;-68
2021/05/24 04:13:47;;;;;;;2.05;0.20;;;11.40;99.90;;;;;;4969887;28;20511;-69
2021/05/24 04:16:13;;;;;;;2.13;0.20;;;11.40;99.90;;;;;;4976668;28;20071;-67
2021/05/24 04:18:42;;;;;;;3.05;0.10;;;11.30;99.90;;;;;;4969020;28;20080;-68
2021/05/24 04:21:08;;;;;;;2.38;0.22;;;11.20;99.90;;;;;;4970167;28;20031;-68
2021/05/24 04:23:33;;;;;;;1.00;0.25;;;11.10;99.90;;;;;;4970629;28;20034;-67
2021/05/24 04:25:59;;;;;;;2.30;0.20;;;11.10;99.90;;;;;;4967568;28;20394;-66
2021/05/24 04:28:25;;;;;;;0.82;0.20;;;11.10;99.90;;;;;;4970492;28;20050;-68
2021/05/24 04:30:50;;;;;;;0.95;0.30;;;11.00;99.90;;;;;;4970169;28;20134;-68
2021/05/24 04:33:16;;;;;;;1.17;0.22;;;11.00;99.90;;;;;;4970067;28;20537;-68
2021/05/24 04:35:41;;;;;;;0.50;0.17;;;11.00;99.90;;;;;;4970609;28;20483;-68
2021/05/24 04:38:07;;;;;;;0.17;0.10;;;11.00;99.90;;;;;;4969448;28;20034;-68
2021/05/24 04:40:33;;;;;;;0.08;0.05;;;11.00;99.90;;;;;;4965245;28;20046;-68
2021/05/24 04:42:58;;;;;;;4.07;0.40;;;11.00;99.90;;;;;;4970761;28;20041;-67
2021/05/24 04:45:25;;;;;;;0.73;0.17;;;11.00;99.90;;;;;;4968745;28;20047;-65
2021/05/24 04:47:50;;;;;;;0.43;0.10;;;11.00;99.90;;;;;;4984966;28;20058;-66
2021/05/24 04:50:16;;;;;;;0.70;0.13;;;10.90;99.90;;;;;;4970292;28;20399;-69
2021/05/24 04:52:42;;;;;;;0.22;0.22;;;10.90;99.90;;;;;;4970060;28;20039;-68
2021/05/24 04:55:10;;;;;;;0.95;0.10;;;10.90;99.90;;;;;;4970082;28;20602;-68
2021/05/24 04:57:35;;;;;;;1.05;0.15;;;10.90;99.90;;;;;;4984605;28;20046;-68
2021/05/24 05:00:03;;;;;;;1.13;0.35;;;10.90;99.90;;;;;;4969959;28;20035;-68
2021/05/24 05:02:28;;;;;;;0.43;0.10;;;10.90;99.90;;;;;;4969850;28;20410;-68
2021/05/24 05:04:58;;;;;;;0.35;0.10;;;11.00;99.90;;;;;;4970091;28;20045;-68
2021/05/24 05:07:24;;;;;;;0.40;0.10;;;11.00;99.90;;;;;;4968474;28;20089;-68
2021/05/24 05:09:49;;;;;;;0.22;0.03;;;11.00;99.90;;;;;;4969838;28;20027;-66
2021/05/24 05:12:15;;;;;;;0.63;0.10;;;11.00;99.90;;;;;;4973144;28;20041;-67
2021/05/24 05:14:41;;;;;;;1.75;0.43;;;11.00;99.90;;;;;;4970232;28;20035;-69
2021/05/24 05:17:07;;;;;;;1.30;0.20;;;11.10;99.90;;;;;;4971428;28;20082;-67
2021/05/24 05:19:32;;;;;;;1.98;0.40;;;11.10;99.90;;;;;;4970780;28;20376;-70
2021/05/24 05:21:58;;;;;;;0.50;0.17;;;11.20;99.90;;;;;;4969666;28;20062;-69
2021/05/24 05:24:23;;;;;;;3.00;0.10;;;11.10;99.90;;;;;;4969791;28;20035;-68
2021/05/24 05:26:49;;;;;;;1.10;0.22;;;11.20;99.90;;;;;;4965447;28;20043;-67
2021/05/24 05:29:15;;;;;;;1.77;0.32;;;11.20;99.90;;;;;;4969207;28;20521;-67
2021/05/24 05:31:40;;;;;;;0.30;0.10;;;11.30;99.90;;;;;;4968129;28;20110;-69
2021/05/24 05:34:06;;;;;;;0.75;0.20;;;11.40;99.90;;;;;;4984341;28;20039;-68
2021/05/24 05:36:33;;;;;;;0.60;0.10;;;11.40;99.90;;;;;;4965506;28;20500;-68
2021/05/24 05:38:59;;;;;;;1.45;0.20;;;11.40;99.90;;;;;;4968780;28;20495;-67
2021/05/24 05:41:24;;;;;;;1.20;0.15;;;11.40;99.90;;;;;;4976210;28;20037;-68
2021/05/24 05:43:50;;;;;;;0.45;0.32;;;11.30;99.90;;;;;;4967198;28;20118;-68
2021/05/24 05:46:16;;;;;;;1.27;0.05;;;11.30;99.90;;;;;;4968709;28;20047;-68
2021/05/24 05:48:41;;;;;;;2.55;0.30;;;11.20;99.90;;;;;;4967213;28;20403;-68
2021/05/24 05:51:09;;;;;;;0.85;0.20;;;11.20;99.90;;;;;;4969214;28;20129;-68
2021/05/24 05:53:35;;;;;;;1.65;0.30;;;11.20;99.90;;;;;;4968627;28;20387;-67
2021/05/24 05:56:00;;;;;;;0.35;0.10;;;11.20;99.90;;;;;;4969085;28;20085;-68
2021/05/24 05:58:26;;;;;;;1.05;0.30;;;11.20;99.90;;;;;;4967973;28;20383;-68
2021/05/24 06:00:51;;;;;;;3.72;0.22;;;11.10;99.90;;;;;;4965044;28;20038;-68
2021/05/24 06:03:17;;;;;;;1.60;0.40;;;11.20;99.90;;;;;;4967192;28;20415;-68
2021/05/24 06:05:43;;;;;;;0.50;0.20;;;11.10;99.90;;;;;;4966790;28;20046;-66
2021/05/24 06:08:08;;;;;;;0.85;0.40;;;11.20;99.90;;;;;;4966975;28;20547;-67
2021/05/24 06:10:34;;;;;;;1.40;0.30;;;11.10;99.90;;;;;;4967002;28;20034;-69
2021/05/24 06:13:00;;;;;;;1.75;0.30;;;11.10;99.90;;;;;;4967750;28;20129;-67
2021/05/24 06:15:26;;;;;;;0.73;0.30;;;11.20;99.90;;;;;;4967567;28;20121;-70
2021/05/24 06:17:51;;;;;;;2.03;0.30;;;11.30;99.90;;;;;;4981308;28;20039;-69
2021/05/24 06:20:17;;;;;;;3.45;0.20;;;11.30;99.90;;;;;;4967598;28;20045;-69
2021/05/24 06:22:43;;;;;;;2.58;0.40;;;11.40;99.90;;;;;;4967579;28;20493;-69
2021/05/24 06:25:10;;;;;;;0.57;0.30;;;11.40;99.90;;;;;;4965839;28;20039;-68
2021/05/24 06:27:37;;;;;;;1.80;0.30;;;11.40;99.90;;;;;;4964586;28;20031;-69
2021/05/24 06:30:07;;;;;;;2.22;0.20;;;11.40;99.90;;;;;;4972495;28;20053;-68
2021/05/24 06:32:33;;;;;;;1.95;0.20;;;11.40;99.90;;;;;;4966139;28;20458;-68
2021/05/24 06:34:59;;;;;;;5.50;0.50;;;11.40;99.90;;;;;;4967531;28;20050;-68
2021/05/24 06:37:24;;;;;;;1.10;0.35;;;11.40;99.90;;;;;;4959655;28;20278;-69
2021/05/24 06:39:50;;;;;;;1.45;0.68;;;11.40;99.90;;;;;;4966818;28;20080;-69
2021/05/24 06:42:16;;;;;;;1.35;0.30;;;11.40;99.90;;;;;;4962283;28;20104;-68
2021/05/24 06:44:41;;;;;;;1.58;0.30;;;11.40;99.90;;;;;;4963267;28;20495;-68
2021/05/24 06:47:07;;;;;;;0.82;0.30;;;11.30;99.90;;;;;;4968719;28;20310;-68
2021/05/24 06:49:34;;;;;;;2.92;0.93;;;11.30;99.90;;;;;;4963158;28;20035;-69
2021/05/24 06:52:02;;;;;;;2.47;0.20;;;11.20;99.90;;;;;;4958184;28;20193;-68
2021/05/24 06:54:27;;;;;;;3.13;0.30;;;11.20;99.90;;;;;;4968308;28;20086;-69
2021/05/24 06:56:53;;;;;;;4.22;0.40;;;11.20;99.90;;;;;;4963381;28;20738;-69
2021/05/24 06:59:19;;;;;;;2.20;0.20;;;11.20;99.90;;;;;;4956839;28;20553;-68
2021/05/24 07:01:44;;;;;;;2.28;0.40;;;11.20;99.90;;;;;;4964688;28;20094;-69
2021/05/24 07:04:10;;;;;;;1.90;0.30;;;11.20;99.90;;;;;;4969880;28;20529;-69
2021/05/24 07:06:35;;;;;;;1.25;0.30;;;11.20;99.90;;;;;;4970447;28;20050;-67
2021/05/24 07:09:01;;;;;;;1.15;0.50;;;11.30;99.90;;;;;;4986852;28;20046;-68
2021/05/24 07:11:26;;;;;;;0.45;0.30;;;11.30;99.90;;;;;;4969458;28;20042;-69
2021/05/24 07:13:52;;;;;;;1.73;0.30;;;11.30;99.90;;;;;;4970911;28;20035;-68
2021/05/24 07:16:17;;;;;;;1.65;0.30;;;11.40;99.90;;;;;;4987420;28;20045;-69
2021/05/24 07:18:43;;;;;;;0.57;0.20;;;11.40;99.90;;;;;;4965711;28;20495;-68
2021/05/24 07:21:09;;;;;;;2.38;0.68;;;11.40;99.90;;;;;;4964777;28;20053;-68
2021/05/24 07:23:35;;;;;;;1.48;0.20;;;11.50;99.90;;;;;;4962974;28;20142;-68
2021/05/24 07:26:00;;;;;;;4.05;0.20;;;11.40;99.90;;;;;;4962080;28;20057;-69
2021/05/24 07:28:26;;;;;;;0.30;0.20;;;11.40;99.90;;;;;;4965787;28;20043;-69
2021/05/24 07:30:52;;;;;;;1.10;0.50;;;11.40;99.90;;;;;;4966430;28;20054;-69
2021/05/24 07:33:18;;;;;;;1.35;0.40;;;11.40;99.90;;;;;;4966941;28;20632;-69
2021/05/24 07:35:43;;;;;;;3.08;0.55;;;11.40;99.90;;;;;;4965354;28;20042;-69
2021/05/24 07:38:09;;;;;;;3.40;0.30;;;11.40;99.90;;;;;;4969424;28;20041;-69
2021/05/24 07:40:35;;;;;;;0.77;0.30;;;11.40;99.90;;;;;;4968928;28;20403;-69
2021/05/24 07:43:01;;;;;;;3.53;0.20;;;11.30;99.90;;;;;;4968659;28;20506;-69
2021/05/24 07:45:27;;;;;;;0.45;0.10;;;11.40;99.90;;;;;;4956913;28;20074;-68
2021/05/24 07:47:52;;;;;;;0.45;0.30;;;11.40;99.90;;;;;;4971098;28;20034;-69
2021/05/24 07:50:18;;;;;;;1.73;0.40;;;11.40;99.90;;;;;;4972931;28;20035;-69
2021/05/24 07:52:44;;;;;;;0.95;0.50;;;11.40;99.90;;;;;;4972670;28;20118;-69
2021/05/24 07:55:10;;;;;;;1.75;0.32;;;11.40;99.90;;;;;;4974400;28;20149;-68
2021/05/24 07:57:38;;;;;;;1.65;0.35;;;11.40;99.90;;;;;;4970684;28;20119;-69
2021/05/24 08:00:05;;;;;;;1.15;0.28;;;11.50;99.90;;;;;;4974548;28;20083;-68
2021/05/24 08:02:31;;;;;;;1.42;0.38;;;11.40;99.90;;;;;;4969776;28;20049;-68
2021/05/24 08:04:56;;;;;;;0.80;0.20;;;11.40;99.90;;;;;;4974044;28;20121;-68
2021/05/24 08:07:22;;;;;;;4.50;0.43;;;11.40;99.90;;;;;;4970672;28;20108;-68
2021/05/24 08:09:49;;;;;;;1.00;0.30;;;11.40;99.90;;;;;;4972690;28;20055;-68
2021/05/24 08:12:17;;;;;;;0.70;0.20;;;11.40;99.90;;;;;;4975272;28;20697;-71
2021/05/24 08:14:42;;;;;;;1.98;0.20;;;11.40;99.90;;;;;;4971255;28;20664;-70
2021/05/24 08:17:08;;;;;;;1.55;0.25;;;11.40;99.90;;;;;;4978277;28;20038;-70
2021/05/24 08:19:33;;;;;;;0.52;0.10;;;11.30;99.90;;;;;;4973672;28;20026;-70
2021/05/24 08:21:59;;;;;;;4.55;1.40;;;11.40;99.90;;;;;;4971598;28;20046;-70
2021/05/24 08:24:24;;;;;;;1.08;0.25;;;11.40;99.90;;;;;;4968928;28;20035;-70
2021/05/24 08:26:50;;;;;;;2.67;0.30;;;11.30;99.90;;;;;;4967285;28;20042;-69
2021/05/24 08:29:16;;;;;;;1.02;0.20;;;11.30;99.90;;;;;;4971059;28;20039;-71
2021/05/24 08:31:42;;;;;;;3.85;0.28;;;11.40;99.90;;;;;;4971903;28;20046;-70
2021/05/24 08:34:08;;;;;;;1.48;0.35;;;11.50;99.90;;;;;;4974289;28;20495;-70
2021/05/24 08:36:35;;;;;;;1.58;0.30;;;11.50;99.90;;;;;;4974626;28;20072;-70
2021/05/24 08:39:01;;;;;;;4.40;1.30;;;11.60;99.90;;;;;;4971709;28;20117;-70
2021/05/24 08:41:26;;;;;;;2.72;0.40;;;11.60;99.90;;;;;;4971957;28;20483;-70
2021/05/24 08:43:52;;;;;;;1.17;0.40;;;11.60;99.90;;;;;;4971968;28;20035;-70
2021/05/24 08:46:18;;;;;;;0.85;0.45;;;11.50;99.90;;;;;;4972892;28;20462;-71
2021/05/24 08:48:43;;;;;;;0.73;0.40;;;11.60;99.90;;;;;;4971702;28;20054;-71
2021/05/24 08:51:09;;;;;;;2.38;0.50;;;11.60;99.90;;;;;;4972632;28;21214;-71
2021/05/24 08:53:39;;;;;;;2.15;0.40;;;11.60;99.90;;;;;;4968460;28;20031;-70
2021/05/24 08:56:06;;;;;;;3.92;0.65;;;11.70;99.90;;;;;;4975804;28;20031;-71
2021/05/24 08:58:32;;;;;;;5.22;0.30;;;11.60;99.90;;;;;;4986130;28;20045;-71
2021/05/24 09:00:57;;;;;;;5.40;0.60;;;11.60;99.90;;;;;;4981562;28;20058;-70
2021/05/24 09:03:26;;;;;;;1.17;0.60;;;11.70;99.90;;;;;;4968351;28;20050;-75
2021/05/24 09:05:53;;;;;;;1.83;0.57;;;11.70;99.90;;;;;;4969763;28;20594;-71
2021/05/24 09:08:19;;;;;;;2.20;0.30;;;11.70;99.90;;;;;;4968317;28;20035;-70
2021/05/24 09:10:46;;;;;;;1.95;0.30;;;11.80;99.90;;;;;;4969419;28;20035;-71
2021/05/24 09:13:17;;;;;;;2.05;0.40;;;11.90;99.90;;;;;;4990456;28;20050;-71
2021/05/24 09:15:45;;;;;;;1.27;0.57;;;11.90;99.90;;;;;;4971518;28;20425;-71
2021/05/24 09:18:11;;;;;;;0.10;0.10;;;11.90;99.90;;;;;;4971305;28;20030;-71
2021/05/24 09:20:40;;;;;;;2.92;0.25;;;11.90;99.90;;;;;;4969201;28;20404;-71
2021/05/24 09:23:30;;;;;;;1.92;0.30;;;12.00;99.90;;;;;;4972369;28;20483;-70
2021/05/24 09:26:01;;;;;;;0.75;0.30;;;12.00;99.90;;;;;;4966553;28;20043;-71
2021/05/24 09:28:34;;;;;;;2.90;0.17;;;12.00;99.90;;;;;;4968265;28;20059;-71
2021/05/24 09:31:19;;;;;;;2.35;0.35;;;12.00;99.90;;;;;;4973184;28;20049;-70
2021/05/24 09:33:50;;;;;;;0.77;0.20;;;12.10;99.90;;;;;;4968103;28;20030;-70
2021/05/24 09:36:16;;;;;;;1.17;0.40;;;12.10;99.90;;;;;;4970572;28;20041;-70
2021/05/24 09:38:47;;;;;;;1.05;0.50;;;12.20;99.90;;;;;;4972003;28;20039;-71
2021/05/24 09:41:15;;;;;;;0.50;0.30;;;12.20;99.90;;;;;;4974187;28;20138;-70
2021/05/24 09:43:46;;;;;;;1.52;0.50;;;12.20;99.90;;;;;;4971211;28;20043;-71
2021/05/24 09:46:14;;;;;;;0.85;0.43;;;12.10;99.90;;;;;;4974002;28;20052;-71
2021/05/24 09:48:41;;;;;;;0.90;0.30;;;12.00;99.90;;;;;;4967220;28;20042;-71
2021/05/24 09:51:12;;;;;;;1.85;0.30;;;12.00;99.90;;;;;;4967654;28;20034;-71
2021/05/24 09:53:38;;;;;;;1.95;0.28;;;12.00;99.90;;;;;;4982265;28;20058;-71
2021/05/24 09:56:07;;;;;;;3.03;0.50;;;12.10;99.90;;;;;;4968583;28;20498;-70
2021/05/24 09:58:33;;;;;;;1.13;0.60;;;12.00;99.90;;;;;;4982634;28;20035;-71
2021/05/24 10:01:13;;;;;;;1.30;0.20;;;12.00;99.90;;;;;;4968334;28;20161;-71
2021/05/24 10:03:40;;;;;;;1.08;0.50;;;11.90;99.90;;;;;;4968846;28;20038;-69
2021/05/24 10:06:06;;;;;;;2.47;0.20;;;12.00;99.90;;;;;;4968083;28;20038;-69
2021/05/24 10:08:32;;;;;;;1.65;0.25;;;12.00;99.90;;;;;;4966791;28;20053;-68
2021/05/24 10:10:59;;;;;;;2.10;0.50;;;12.10;99.90;;;;;;4968172;28;20057;-68
2021/05/24 10:13:27;;;;;;;0.80;0.40;;;12.20;99.90;;;;;;4968693;28;20045;-71
2021/05/24 10:15:59;;;;;;;1.60;0.20;;;12.30;99.90;;;;;;4968462;28;20065;-69
2021/05/24 10:18:25;;;;;;;3.42;0.45;;;12.40;99.90;;;;;;4967782;28;20043;-69
2021/05/24 10:20:52;;;;;;;2.00;0.43;;;12.40;99.90;;;;;;4968186;28;20082;-69
2021/05/24 10:23:20;;;;;;;1.40;0.40;;;12.40;99.90;;;;;;4969013;28;20050;-69
2021/05/24 10:25:46;;;;;;;2.47;0.55;;;12.40;99.90;;;;;;4975108;28;20099;-69
2021/05/24 10:28:12;;;;;;;1.05;0.40;;;12.40;99.90;;;;;;4962587;28;20027;-69
2021/05/24 10:30:38;;;;;;;2.70;0.45;;;12.40;99.90;;;;;;4967033;28;20030;-69
2021/05/24 10:33:10;;;;;;;0.52;0.25;;;12.50;99.90;;;;;;4978139;28;20035;-69
2021/05/24 10:35:46;;;;;;;1.77;0.40;;;12.50;99.90;;;;;;4983502;28;20049;-69
2021/05/24 10:38:35;;;;;;;2.30;0.40;;;12.40;99.90;;;;;;4965260;28;20041;-69
2021/05/24 10:41:10;;;;;;;2.75;0.40;;;12.50;99.90;;;;;;4961708;28;20125;-69
2021/05/24 10:43:45;;;;;;;1.33;0.40;;;12.40;99.90;;;;;;4968690;28;20038;-69
2021/05/24 10:46:26;;;;;;;1.88;0.50;;;12.40;99.90;;;;;;4967700;28;20046;-70
2021/05/24 10:49:22;;;;;;;0.80;0.55;;;12.40;99.90;;;;;;4961022;28;20124;-68
2021/05/24 10:51:48;;;;;;;2.25;0.85;;;12.60;99.90;;;;;;4950378;28;20043;-69
2021/05/24 10:54:28;;;;;;;1.98;0.70;;;12.60;99.90;;;;;;4963760;28;20035;-70
2021/05/24 10:57:00;;;;;;;1.40;0.40;;;12.80;99.90;;;;;;4958503;28;20089;-68
2021/05/24 10:59:41;;;;;;;0.60;0.30;;;12.90;99.90;;;;;;4965169;28;20079;-70
2021/05/24 11:02:10;;;;;;;1.08;0.60;;;13.00;99.90;;;;;;4961169;28;20039;-70
2021/05/24 11:04:55;;;;;;;1.45;0.85;;;13.10;99.90;;;;;;4954213;28;20039;-69
2021/05/24 11:07:39;;;;;;;2.40;0.57;;;13.20;99.90;;;;;;4957577;28;20427;-69
2021/05/24 11:13:00;;;;;;;1.25;0.20;;;13.40;99.90;;;;;;4966987;28;20058;-70
2021/05/24 11:15:31;;;;;;;0.25;0.20;;;13.40;99.90;;;;;;4964160;28;20043;-70
2021/05/24 11:17:59;;;;;;;2.28;0.55;;;13.50;99.90;;;;;;4968395;28;20489;-70
2021/05/24 11:20:32;;;;;;;1.02;0.32;;;13.60;99.90;;;;;;4984481;28;20043;-69
2021/05/24 11:23:26;;;;;;;1.10;0.30;;;13.60;99.90;;;;;;4974894;28;20185;-68
2021/05/24 11:26:19;;;;;;;0.47;0.20;;;13.70;99.90;;;;;;4973888;28;20042;-69
2021/05/24 11:28:52;;;;;;;0.98;0.38;;;13.70;99.90;;;;;;4973602;28;20031;-70
2021/05/24 11:31:23;;;;;;;6.30;1.05;;;13.70;99.90;;;;;;4978148;28;20031;-70
2021/05/24 11:33:49;;;;;;;0.85;0.30;;;13.70;99.90;;;;;;4970991;28;20065;-70
2021/05/24 11:36:17;;;;;;;1.17;0.40;;;13.70;99.90;;;;;;4970451;28;20061;-70
2021/05/24 11:39:13;;;;;;;1.38;0.25;;;13.70;99.90;;;;;;4967454;28;20069;-70
2021/05/24 11:41:44;;;;;;;0.43;0.20;;;13.80;99.90;;;;;;4968925;28;20050;-69
2021/05/24 11:44:11;;;;;;;3.60;1.00;;;13.80;99.90;;;;;;4970163;28;20031;-69
2021/05/24 11:46:55;;;;;;;0.68;0.30;;;13.80;99.90;;;;;;4978698;28;20115;-70
2021/05/24 11:49:31;;;;;;;1.50;0.40;;;13.80;99.90;;;;;;4974914;28;20750;-68
2021/05/24 11:51:57;;;;;;;1.38;0.38;;;13.80;99.90;;;;;;4986257;28;20109;-70
2021/05/24 11:54:25;;;;;;;1.58;0.45;;;13.80;99.90;;;;;;4974239;28;20538;-69
2021/05/24 11:56:56;;;;;;;1.08;0.40;;;13.70;99.90;;;;;;4971552;28;20108;-69
2021/05/24 11:59:27;;;;;;;0.60;0.28;;;13.70;99.90;;;;;;4963877;28;20050;-70
2021/05/24 12:01:55;;;;;;;0.85;0.22;;;13.80;99.90;;;;;;4980594;28;20581;-70
2021/05/24 12:04:23;;;;;;;0.80;0.43;;;13.90;99.90;;;;;;4964933;28;20023;-69
2021/05/24 12:06:53;;;;;;;2.13;0.70;;;13.90;99.90;;;;;;4966572;28;20495;-68
2021/05/24 12:09:37;;;;;;;3.92;0.60;;;13.90;99.90;;;;;;4968866;28;20438;-70
2021/05/24 12:12:14;;;;;;;0.75;0.13;;;14.00;99.90;;;;;;4976246;28;21491;-70
2021/05/24 12:14:43;;;;;;;0.95;0.30;;;14.10;99.90;;;;;;4965799;28;20043;-70
2021/05/24 12:17:11;;;;;;;5.35;0.30;;;14.50;99.90;;;;;;4965467;28;20035;-70
2021/05/24 12:19:37;;;;;;;0.65;0.20;;;14.70;99.90;;;;;;4964642;28;20037;-69
2021/05/24 12:22:05;;;;;;;1.38;0.30;;;14.80;99.90;;;;;;4963172;28;20038;-70
2021/05/24 12:24:37;;;;;;;0.52;0.40;;;14.80;99.90;;;;;;4970370;28;20062;-70
2021/05/24 12:27:04;;;;;;;1.33;0.45;;;14.90;99.90;;;;;;4970058;28;20034;-68
2021/05/24 12:29:32;;;;;;;0.40;0.20;;;14.80;99.90;;;;;;4968302;28;20569;-70
2021/05/24 12:32:02;;;;;;;1.23;0.43;;;14.90;99.90;;;;;;4962025;28;20039;-70
2021/05/24 12:34:34;;;;;;;2.92;0.35;;;14.90;99.90;;;;;;4968760;28;20035;-70
2021/05/24 12:37:00;;;;;;;0.52;0.20;;;14.90;99.90;;;;;;4968118;28;20531;-68
2021/05/24 12:39:28;;;;;;;0.35;0.17;;;14.90;99.90;;;;;;4967197;28;20665;-68
2021/05/24 12:41:57;;;;;;;0.98;0.40;;;14.70;99.90;;;;;;4975196;28;20093;-69
2021/05/24 12:44:24;;;;;;;1.92;0.30;;;14.60;99.90;;;;;;4968216;28;20070;-67
2021/05/24 12:46:52;;;;;;;0.50;0.30;;;14.60;99.90;;;;;;4968911;28;20083;-70
2021/05/24 12:49:23;;;;;;;0.80;0.38;;;14.60;99.90;;;;;;4965256;28;20050;-69
2021/05/24 12:52:00;;;;;;;2.22;0.30;;;14.80;99.90;;;;;;4962980;28;20046;-69
2021/05/24 12:54:26;;;;;;;1.35;0.17;;;15.00;99.90;;;;;;4965686;28;21318;-68
2021/05/24 12:56:52;;;;;;;0.22;0.10;;;15.20;99.90;;;;;;4968496;28;20049;-69